aviador You're here:

PAVL Decoded Metar

KIVALINA in AK, USA
Report Time2018-01-19 18:53:00
UTC Time2018-01-19 19:09:04
Flight Rules vfr VFR
Wind330° at 15 kt
W.Decomp.*RWY 30: 14.5 kt HW 3.9 kt RCW
W.Rank330° ranks 20
Current wind is above 330° avg. (10.6)
Visibility9999 m
Phenomena:N/A
Clouds:N/A
Expected CloudBase > 2,000 ft AGL from Temp-Dew spread
CeilingNone
Temp-24°C (ISA -39)
Dew Point-29°C (63% RH)
AAT-33.2°C
QNH1026 hPa
Density Alt-5,476 ft
Elevation10 ft
Report Wrong Elevation
Raw Report
PAVL 191853Z AUTO 33015KT 10SM CLR M24/M29 A3030 RMK AO2 SLP259
T12441289 TSNO $=

Extra information for PAVL:More info

Metar Taf Metar & Taf Last 4 Metars F.Rules Stats Wind Profile Meteogram Temp Stats Airport Information Weather charts Add Link Nearby VenuesMetar ALERT Operation Metar Decoded Social comments

AIRNAV info for PAVL